Time;durP1;ratioP1;P1;durP2;ratioP2;P2;SDS_P1;SDS_P2;PMS_P1;PMS_P2;Temp;Humidity;BMP_temperature;BMP_pressure;BME280_temperature;BME280_humidity;BME280_pressure;Samples;Min_cycle;Max_cycle;Signal;HPM_P1;HPM_P2
2022/12/29 00:02:13;;;;;;;5.25;4.18;;;;;;;;;;5039752;28;20057;-80
2022/12/29 00:04:39;;;;;;;6.75;4.60;;;;;;;;;;5039324;28;20025;-80
2022/12/29 00:07:05;;;;;;;5.50;4.10;;;;;;;;;;5039480;28;20479;-80
2022/12/29 00:09:32;;;;;;;5.80;4.30;;;;;;;;;;5039321;28;20057;-81
2022/12/29 00:11:58;;;;;;;5.90;3.88;;;;;;;;;;5039660;28;20022;-80
2022/12/29 00:17:09;;;;;;;5.05;4.40;;;;;;;;;;5039351;28;20037;-80
2022/12/29 00:36:04;;;;;;;5.60;4.53;;;;;;;;;;5048900;28;20040;-80
2022/12/29 00:44:04;;;;;;;7.25;5.72;;;;;;;;;;5045040;28;20040;-80
2022/12/29 00:46:30;;;;;;;6.57;5.53;;;;;;;;;;5044626;28;20030;-81
2022/12/29 00:51:44;;;;;;;7.65;5.68;;;;;;;;;;5045267;28;20037;-80
2022/12/29 00:54:10;;;;;;;8.35;6.00;;;;;;;;;;5043858;28;20030;-80
2022/12/29 00:56:36;;;;;;;7.40;5.50;;;;;;;;;;5043717;28;20052;-80
2022/12/29 00:59:03;;;;;;;7.47;5.60;;;;;;;;;;5020920;28;20481;-80
2022/12/29 01:01:29;;;;;;;6.22;5.55;;;;;;;;;;5023699;28;20440;-80
2022/12/29 01:03:55;;;;;;;8.07;6.10;;;;;;;;;;5023012;28;20026;-80
2022/12/29 01:06:26;;;;;;;7.60;5.60;;;;;;;;;;5022700;28;20026;-80
2022/12/29 01:11:37;;;;;;;6.10;5.43;;;;;;;;;;5022117;28;20076;-80
2022/12/29 01:14:03;;;;;;;6.22;5.60;;;;;;;;;;5021619;28;20041;-81
2022/12/29 01:16:29;;;;;;;7.47;5.70;;;;;;;;;;5020819;28;20026;-80
2022/12/29 01:19:10;;;;;;;7.95;5.72;;;;;;;;;;5020450;28;20030;-81
2022/12/29 01:21:36;;;;;;;8.18;5.60;;;;;;;;;;5019698;28;20038;-80
2022/12/29 01:24:02;;;;;;;5.45;4.93;;;;;;;;;;5018430;28;20381;-80
2022/12/29 01:26:28;;;;;;;6.32;5.57;;;;;;;;;;5018426;28;20030;-80
2022/12/29 01:28:54;;;;;;;6.82;5.22;;;;;;;;;;5017982;28;20088;-80
2022/12/29 01:31:20;;;;;;;5.85;5.18;;;;;;;;;;5017842;28;20065;-80
2022/12/29 01:33:46;;;;;;;7.53;5.15;;;;;;;;;;5017640;28;20432;-80
2022/12/29 01:36:14;;;;;;;6.25;4.50;;;;;;;;;;5016580;28;20041;-80
2022/12/29 01:38:40;;;;;;;6.20;4.63;;;;;;;;;;5016938;28;20385;-80
2022/12/29 01:41:07;;;;;;;6.72;4.90;;;;;;;;;;5016667;28;20033;-80
2022/12/29 01:43:41;;;;;;;7.95;4.65;;;;;;;;;;5016475;28;20488;-81
2022/12/29 01:46:14;;;;;;;5.32;4.55;;;;;;;;;;5016459;28;20045;-80
2022/12/29 01:48:40;;;;;;;6.20;4.60;;;;;;;;;;5016791;28;20501;-81
2022/12/29 01:51:07;;;;;;;6.70;4.22;;;;;;;;;;5015971;28;20030;-81
2022/12/29 01:53:34;;;;;;;5.22;4.10;;;;;;;;;;5016292;28;20362;-81
2022/12/29 01:56:06;;;;;;;7.13;4.78;;;;;;;;;;5015686;28;20034;-81
2022/12/29 01:58:34;;;;;;;7.50;4.53;;;;;;;;;;5020706;28;20385;-80
2022/12/29 02:01:00;;;;;;;6.13;4.53;;;;;;;;;;5034891;28;20049;-80
2022/12/29 02:03:28;;;;;;;4.85;3.83;;;;;;;;;;5034724;28;20373;-80
2022/12/29 02:05:57;;;;;;;5.60;3.80;;;;;;;;;;5034887;28;20022;-81
2022/12/29 02:08:24;;;;;;;6.03;3.03;;;;;;;;;;5034629;28;20431;-81
2022/12/29 02:10:50;;;;;;;2.72;1.98;;;;;;;;;;5034569;28;20101;-81
2022/12/29 02:13:17;;;;;;;2.22;1.58;;;;;;;;;;5034558;28;20483;-80
2022/12/29 02:15:58;;;;;;;3.08;1.13;;;;;;;;;;5034615;28;20487;-81
2022/12/29 02:18:30;;;;;;;2.97;1.13;;;;;;;;;;5034310;28;20026;-81
2022/12/29 02:21:06;;;;;;;3.13;0.90;;;;;;;;;;5034366;28;20042;-81
2022/12/29 02:23:32;;;;;;;1.77;0.63;;;;;;;;;;5039048;28;20097;-81
2022/12/29 02:26:12;;;;;;;2.28;0.52;;;;;;;;;;5030570;28;20057;-81
2022/12/29 02:28:47;;;;;;;1.92;0.40;;;;;;;;;;5020101;28;20037;-81
2022/12/29 02:31:31;;;;;;;2.15;0.50;;;;;;;;;;5020606;28;20081;-81
2022/12/29 02:34:04;;;;;;;5.20;0.80;;;;;;;;;;5020084;28;20026;-80
2022/12/29 02:36:41;;;;;;;1.52;0.60;;;;;;;;;;5020077;28;20022;-81
2022/12/29 02:39:19;;;;;;;2.90;0.90;;;;;;;;;;5020197;28;20037;-80
2022/12/29 02:41:53;;;;;;;1.95;1.00;;;;;;;;;;5020279;28;20384;-80
2022/12/29 02:44:29;;;;;;;2.42;1.35;;;;;;;;;;5020048;28;20029;-80
2022/12/29 02:47:01;;;;;;;2.53;1.05;;;;;;;;;;5020058;28;20484;-80
2022/12/29 02:49:43;;;;;;;1.27;1.05;;;;;;;;;;5001511;28;20080;-80
2022/12/29 02:52:14;;;;;;;2.90;1.10;;;;;;;;;;5001707;28;20025;-80
2022/12/29 02:54:41;;;;;;;2.35;1.50;;;;;;;;;;5020788;28;20030;-80
2022/12/29 02:57:22;;;;;;;2.83;1.80;;;;;;;;;;5020646;28;20068;-81
2022/12/29 02:59:50;;;;;;;2.80;1.88;;;;;;;;;;5000649;28;20042;-80
2022/12/29 03:02:37;;;;;;;1.92;1.60;;;;;;;;;;5000870;28;20026;-80
2022/12/29 03:05:03;;;;;;;3.42;1.42;;;;;;;;;;5019571;28;20030;-80
2022/12/29 03:07:32;;;;;;;8.40;1.60;;;;;;;;;;5019159;28;20076;-80
2022/12/29 03:10:11;;;;;;;8.63;1.60;;;;;;;;;;5020338;28;20026;-80
2022/12/29 03:18:25;;;;;;;6.85;0.90;;;;;;;;;;5021802;28;20033;-80
2022/12/29 03:20:51;;;;;;;11.85;1.73;;;;;;;;;;5020100;28;20048;-80
2022/12/29 03:23:18;;;;;;;10.15;1.52;;;;;;;;;;5020653;28;20046;-80
2022/12/29 03:25:46;;;;;;;13.65;1.75;;;;;;;;;;5002648;28;20076;-81
2022/12/29 03:28:14;;;;;;;11.13;1.42;;;;;;;;;;5020339;28;20044;-81
2022/12/29 03:30:41;;;;;;;6.50;1.30;;;;;;;;;;5019535;28;20030;-81
2022/12/29 03:33:10;;;;;;;8.27;0.90;;;;;;;;;;5020652;28;20500;-81
2022/12/29 03:35:38;;;;;;;15.50;1.88;;;;;;;;;;5019419;28;20026;-81
2022/12/29 03:38:13;;;;;;;4.75;1.15;;;;;;;;;;5019454;28;20026;-80
2022/12/29 03:40:41;;;;;;;7.05;1.75;;;;;;;;;;5018527;28;20025;-80
2022/12/29 03:43:07;;;;;;;11.38;1.70;;;;;;;;;;5018830;28;20033;-81
2022/12/29 03:45:33;;;;;;;4.22;0.88;;;;;;;;;;5018488;28;20108;-80
2022/12/29 03:47:59;;;;;;;6.70;1.35;;;;;;;;;;5018243;28;20068;-81
2022/12/29 03:50:25;;;;;;;8.23;1.13;;;;;;;;;;5017176;28;20030;-80
2022/12/29 03:52:51;;;;;;;6.85;0.90;;;;;;;;;;5023574;28;20027;-81
2022/12/29 03:55:17;;;;;;;10.40;1.35;;;;;;;;;;5037437;28;20037;-81
2022/12/29 03:57:43;;;;;;;8.50;1.05;;;;;;;;;;5037642;28;20030;-80
2022/12/29 04:00:09;;;;;;;7.72;1.55;;;;;;;;;;5037371;28;20050;-80
2022/12/29 04:02:35;;;;;;;7.10;1.13;;;;;;;;;;5039948;28;20021;-80
2022/12/29 04:05:01;;;;;;;9.25;1.70;;;;;;;;;;5040177;28;20036;-80
2022/12/29 04:07:27;;;;;;;9.55;1.35;;;;;;;;;;5040173;28;20084;-80
2022/12/29 04:09:53;;;;;;;9.63;1.15;;;;;;;;;;5041546;28;20029;-81
2022/12/29 04:12:19;;;;;;;10.98;1.10;;;;;;;;;;5038206;28;20092;-80
2022/12/29 04:14:45;;;;;;;7.63;1.40;;;;;;;;;;5037991;28;20393;-80
2022/12/29 04:17:11;;;;;;;13.10;1.80;;;;;;;;;;5037915;28;20052;-80
2022/12/29 04:22:40;;;;;;;23.83;2.85;;;;;;;;;;5037808;28;20483;-80
2022/12/29 04:25:06;;;;;;;12.02;1.70;;;;;;;;;;5037369;28;20025;-80
2022/12/29 04:27:32;;;;;;;16.27;2.58;;;;;;;;;;5037030;28;20037;-81
2022/12/29 04:30:18;;;;;;;11.43;1.77;;;;;;;;;;5037055;28;20022;-81
2022/12/29 04:32:44;;;;;;;19.02;2.20;;;;;;;;;;5036760;28;20025;-81
2022/12/29 04:35:11;;;;;;;16.92;2.08;;;;;;;;;;5037210;28;20040;-80
2022/12/29 04:37:37;;;;;;;14.52;2.35;;;;;;;;;;5039004;28;20041;-80
2022/12/29 04:40:03;;;;;;;15.18;2.03;;;;;;;;;;5038577;28;20022;-80
2022/12/29 04:42:29;;;;;;;19.42;2.55;;;;;;;;;;5020648;28;20069;-80
2022/12/29 04:44:55;;;;;;;21.40;2.20;;;;;;;;;;5038046;28;20064;-80
2022/12/29 04:47:21;;;;;;;19.15;2.70;;;;;;;;;;5038633;28;20025;-80
2022/12/29 04:49:47;;;;;;;21.48;2.70;;;;;;;;;;5038399;28;20104;-80
2022/12/29 04:52:13;;;;;;;16.50;2.25;;;;;;;;;;5038253;28;20033;-80
2022/12/29 04:54:39;;;;;;;15.73;2.25;;;;;;;;;;5047110;28;20022;-80
2022/12/29 04:57:05;;;;;;;18.73;2.80;;;;;;;;;;5047310;28;20021;-80
2022/12/29 04:59:31;;;;;;;19.70;2.60;;;;;;;;;;5046437;28;20060;-81
2022/12/29 05:01:57;;;;;;;16.67;2.28;;;;;;;;;;5029631;28;20033;-80
2022/12/29 05:04:23;;;;;;;15.73;2.25;;;;;;;;;;5045332;28;20029;-80
2022/12/29 05:06:49;;;;;;;20.35;2.53;;;;;;;;;;5038879;28;20044;-80
2022/12/29 05:09:15;;;;;;;17.40;3.45;;;;;;;;;;5043654;28;20022;-80
2022/12/29 05:11:41;;;;;;;14.60;2.45;;;;;;;;;;5043108;28;20076;-80
2022/12/29 05:14:07;;;;;;;16.95;2.00;;;;;;;;;;5042238;28;20064;-80
2022/12/29 05:16:33;;;;;;;22.48;2.53;;;;;;;;;;5041633;28;20034;-80
2022/12/29 05:18:59;;;;;;;18.42;2.78;;;;;;;;;;5041959;28;20021;-80
2022/12/29 05:21:25;;;;;;;18.63;2.03;;;;;;;;;;5041058;28;20079;-80
2022/12/29 05:23:51;;;;;;;13.98;2.05;;;;;;;;;;5022670;28;20025;-80
2022/12/29 05:26:17;;;;;;;9.57;2.05;;;;;;;;;;5039948;28;20109;-80
2022/12/29 05:28:43;;;;;;;15.05;2.05;;;;;;;;;;5040452;28;20036;-80
2022/12/29 05:31:09;;;;;;;15.25;1.90;;;;;;;;;;5039337;28;20100;-80
2022/12/29 05:33:35;;;;;;;14.18;1.90;;;;;;;;;;5039490;28;20029;-81
2022/12/29 05:36:05;;;;;;;15.20;1.52;;;;;;;;;;5027905;28;20034;-79
2022/12/29 05:38:31;;;;;;;13.70;1.92;;;;;;;;;;5037777;28;20029;-80
2022/12/29 05:40:57;;;;;;;13.55;1.90;;;;;;;;;;5037682;28;20411;-80
2022/12/29 05:43:23;;;;;;;17.10;1.92;;;;;;;;;;5019719;28;20093;-80
2022/12/29 05:45:49;;;;;;;18.13;2.17;;;;;;;;;;5037031;28;20096;-80
2022/12/29 05:48:16;;;;;;;10.68;2.03;;;;;;;;;;5036323;28;20425;-80
2022/12/29 05:50:52;;;;;;;12.55;1.50;;;;;;;;;;5037146;28;20029;-80
2022/12/29 05:53:18;;;;;;;11.65;2.13;;;;;;;;;;5037124;28;20022;-80
2022/12/29 05:55:48;;;;;;;18.42;2.20;;;;;;;;;;5036667;28;20064;-80
2022/12/29 05:58:15;;;;;;;16.60;2.65;;;;;;;;;;5020683;28;20508;-80
2022/12/29 06:00:41;;;;;;;11.50;1.73;;;;;;;;;;5009230;28;20041;-80
2022/12/29 06:03:07;;;;;;;14.73;1.83;;;;;;;;;;5035442;28;20500;-81
2022/12/29 06:05:33;;;;;;;13.82;2.40;;;;;;;;;;5017742;28;20110;-80
2022/12/29 06:07:59;;;;;;;15.68;2.80;;;;;;;;;;5017884;28;20380;-80
2022/12/29 06:10:25;;;;;;;16.30;2.45;;;;;;;;;;5016886;28;20030;-80
2022/12/29 06:12:51;;;;;;;14.13;1.92;;;;;;;;;;5017678;28;20437;-80
2022/12/29 06:15:17;;;;;;;12.98;1.90;;;;;;;;;;5032989;28;20057;-79
2022/12/29 06:17:43;;;;;;;18.05;2.60;;;;;;;;;;5035986;28;20036;-80
2022/12/29 06:20:17;;;;;;;12.27;2.05;;;;;;;;;;5017843;28;20033;-80
2022/12/29 06:22:43;;;;;;;21.35;2.33;;;;;;;;;;5034801;28;20032;-80
2022/12/29 06:25:24;;;;;;;20.08;2.15;;;;;;;;;;5034818;28;20029;-80
2022/12/29 06:27:53;;;;;;;17.65;2.97;;;;;;;;;;5034732;28;20033;-80
2022/12/29 06:30:19;;;;;;;15.60;2.25;;;;;;;;;;5034273;28;20056;-80
2022/12/29 06:33:16;;;;;;;11.95;2.85;;;;;;;;;;5026975;28;20025;-80
2022/12/29 06:35:42;;;;;;;12.82;2.00;;;;;;;;;;4996861;28;20030;-80
2022/12/29 06:38:17;;;;;;;16.40;2.67;;;;;;;;;;5026616;28;20436;-79
2022/12/29 06:40:44;;;;;;;20.80;2.55;;;;;;;;;;5020826;28;20032;-79
2022/12/29 06:43:10;;;;;;;14.45;2.03;;;;;;;;;;5010880;28;20419;-80
2022/12/29 06:45:39;;;;;;;21.63;2.45;;;;;;;;;;5027135;28;20025;-80
2022/12/29 06:48:05;;;;;;;14.48;2.17;;;;;;;;;;5036899;28;20021;-80
2022/12/29 06:50:31;;;;;;;18.02;2.95;;;;;;;;;;5032418;28;20072;-80
2022/12/29 06:52:58;;;;;;;21.83;2.72;;;;;;;;;;5036773;28;20045;-80
2022/12/29 06:55:24;;;;;;;19.35;2.60;;;;;;;;;;5036534;28;20049;-80
2022/12/29 06:57:50;;;;;;;24.98;4.47;;;;;;;;;;5013227;28;20049;-80
2022/12/29 07:00:19;;;;;;;19.92;3.00;;;;;;;;;;5019336;28;20056;-79
2022/12/29 07:02:44;;;;;;;18.40;2.58;;;;;;;;;;5020893;28;20030;-80
2022/12/29 07:05:13;;;;;;;20.92;3.03;;;;;;;;;;5023131;28;20433;-80
2022/12/29 07:07:48;;;;;;;10.05;1.88;;;;;;;;;;5023187;28;20057;-79
2022/12/29 07:10:14;;;;;;;19.65;3.90;;;;;;;;;;5004259;28;20116;-80
2022/12/29 07:12:40;;;;;;;18.98;2.83;;;;;;;;;;5021975;28;20064;-80
2022/12/29 07:15:06;;;;;;;18.30;2.63;;;;;;;;;;5020383;28;20113;-81
2022/12/29 07:17:32;;;;;;;17.92;2.33;;;;;;;;;;5021075;28;20041;-81
2022/12/29 07:19:58;;;;;;;25.73;3.17;;;;;;;;;;5020106;28;20030;-81
2022/12/29 07:22:25;;;;;;;17.38;2.70;;;;;;;;;;5019647;28;20057;-80
2022/12/29 07:24:50;;;;;;;21.00;2.95;;;;;;;;;;5019394;28;20033;-81
2022/12/29 07:27:16;;;;;;;21.67;3.22;;;;;;;;;;5019292;28;20026;-80
2022/12/29 07:29:42;;;;;;;16.80;2.40;;;;;;;;;;5019082;28;20492;-81
2022/12/29 07:32:09;;;;;;;16.30;2.25;;;;;;;;;;5018995;28;20098;-81
2022/12/29 07:34:35;;;;;;;17.48;2.58;;;;;;;;;;5027261;28;20068;-81
2022/12/29 07:37:20;;;;;;;22.42;2.50;;;;;;;;;;5020832;28;20037;-81
2022/12/29 07:39:47;;;;;;;23.13;3.20;;;;;;;;;;5040026;28;20090;-82
2022/12/29 07:42:13;;;;;;;15.18;2.40;;;;;;;;;;5039024;28;20148;-81
2022/12/29 07:44:57;;;;;;;19.30;3.17;;;;;;;;;;5020920;28;20026;-81
2022/12/29 07:47:23;;;;;;;16.98;2.97;;;;;;;;;;5026688;28;20025;-81
2022/12/29 07:50:01;;;;;;;19.33;2.70;;;;;;;;;;5040168;28;20025;-81
2022/12/29 07:52:27;;;;;;;19.88;3.65;;;;;;;;;;5038958;28;20072;-81
2022/12/29 07:54:53;;;;;;;24.40;3.15;;;;;;;;;;5038014;28;20083;-81
2022/12/29 07:57:19;;;;;;;20.63;3.42;;;;;;;;;;5019012;28;20030;-81
2022/12/29 07:59:45;;;;;;;21.52;3.63;;;;;;;;;;4998124;28;20050;-81
2022/12/29 08:02:11;;;;;;;16.65;3.17;;;;;;;;;;5022521;28;20026;-81
2022/12/29 08:04:42;;;;;;;20.88;3.63;;;;;;;;;;5011845;28;20633;-81
2022/12/29 08:10:16;;;;;;;18.52;3.08;;;;;;;;;;5012800;28;20048;-80
2022/12/29 08:12:44;;;;;;;17.73;2.58;;;;;;;;;;5017688;28;20453;-81
2022/12/29 08:15:12;;;;;;;22.88;3.17;;;;;;;;;;5022304;28;20026;-81
2022/12/29 08:17:38;;;;;;;18.67;3.33;;;;;;;;;;5016831;28;20496;-81
2022/12/29 08:20:04;;;;;;;30.45;3.58;;;;;;;;;;5012966;28;20037;-81
2022/12/29 08:22:31;;;;;;;28.15;3.28;;;;;;;;;;5005834;28;20149;-81
2022/12/29 08:24:57;;;;;;;20.60;3.70;;;;;;;;;;5017047;28;20026;-81
2022/12/29 08:27:23;;;;;;;16.23;3.03;;;;;;;;;;5017962;28;20176;-81
2022/12/29 08:29:48;;;;;;;22.67;2.97;;;;;;;;;;5016953;28;20026;-81
2022/12/29 08:32:14;;;;;;;24.83;3.05;;;;;;;;;;5016491;28;20022;-81
2022/12/29 08:34:40;;;;;;;19.58;2.85;;;;;;;;;;5016367;28;20427;-81
2022/12/29 08:37:06;;;;;;;23.17;3.15;;;;;;;;;;5016547;28;20033;-81
2022/12/29 08:39:32;;;;;;;20.30;3.47;;;;;;;;;;5022447;28;20057;-81
2022/12/29 08:41:58;;;;;;;24.50;3.80;;;;;;;;;;5021504;28;20072;-81
2022/12/29 08:44:24;;;;;;;16.88;3.30;;;;;;;;;;5016699;28;20025;-81
2022/12/29 08:46:50;;;;;;;11.75;2.65;;;;;;;;;;5015911;28;20563;-81
2022/12/29 08:49:16;;;;;;;23.15;3.35;;;;;;;;;;5015329;28;20057;-81
2022/12/29 08:51:42;;;;;;;17.77;3.53;;;;;;;;;;5016221;28;20453;-80
2022/12/29 08:54:08;;;;;;;18.60;2.53;;;;;;;;;;5016761;28;20519;-81
2022/12/29 08:56:34;;;;;;;19.60;2.40;;;;;;;;;;5016423;28;20029;-81
2022/12/29 08:59:00;;;;;;;25.90;3.75;;;;;;;;;;5022642;28;20049;-81
2022/12/29 09:01:26;;;;;;;31.45;4.28;;;;;;;;;;5035819;28;20024;-81
2022/12/29 09:04:19;;;;;;;22.92;2.97;;;;;;;;;;5035740;28;20021;-81
2022/12/29 09:06:45;;;;;;;23.17;3.80;;;;;;;;;;5035859;28;20029;-80
2022/12/29 09:09:12;;;;;;;26.98;3.28;;;;;;;;;;5035560;28;20037;-81
2022/12/29 09:11:38;;;;;;;23.52;4.45;;;;;;;;;;5035478;28;20489;-81
2022/12/29 09:19:53;;;;;;;22.85;2.90;;;;;;;;;;5035740;28;20121;-78
2022/12/29 09:22:19;;;;;;;26.00;3.80;;;;;;;;;;5035712;28;20068;-79
2022/12/29 09:24:45;;;;;;;29.42;3.67;;;;;;;;;;5036007;28;20456;-80
2022/12/29 09:27:11;;;;;;;18.73;3.08;;;;;;;;;;5035994;28;20037;-80
2022/12/29 09:29:37;;;;;;;17.70;2.47;;;;;;;;;;5035092;28;20026;-79
2022/12/29 09:32:04;;;;;;;20.15;2.63;;;;;;;;;;5035562;28;20021;-79
2022/12/29 09:34:29;;;;;;;19.70;2.95;;;;;;;;;;5035000;28;20047;-79
2022/12/29 09:36:56;;;;;;;18.58;2.67;;;;;;;;;;5035162;28;20112;-79
2022/12/29 09:39:22;;;;;;;13.52;2.22;;;;;;;;;;5017387;28;20397;-79
2022/12/29 09:42:02;;;;;;;12.93;2.60;;;;;;;;;;5027775;28;20030;-79
2022/12/29 09:44:42;;;;;;;15.98;2.53;;;;;;;;;;5032388;28;20246;-78
2022/12/29 09:47:11;;;;;;;18.27;3.53;;;;;;;;;;5036025;28;20029;-78
2022/12/29 09:49:49;;;;;;;16.92;2.63;;;;;;;;;;5035845;28;20037;-79
2022/12/29 09:52:30;;;;;;;18.55;2.40;;;;;;;;;;5035151;28;20333;-78
2022/12/29 09:54:57;;;;;;;16.27;2.30;;;;;;;;;;5035468;28;20033;-79
2022/12/29 09:57:35;;;;;;;17.33;3.47;;;;;;;;;;5034920;28;20026;-78
2022/12/29 10:00:05;;;;;;;16.15;2.40;;;;;;;;;;5034358;28;20049;-78
2022/12/29 10:02:38;;;;;;;18.40;2.80;;;;;;;;;;5034233;28;20021;-79
2022/12/29 10:05:13;;;;;;;18.10;2.35;;;;;;;;;;5024771;28;20038;-79
2022/12/29 10:07:44;;;;;;;25.40;3.28;;;;;;;;;;5015233;28;20037;-79
2022/12/29 10:10:17;;;;;;;23.42;3.00;;;;;;;;;;5014936;28;20160;-79
2022/12/29 10:12:50;;;;;;;28.13;3.70;;;;;;;;;;5015214;28;20034;-79
2022/12/29 10:15:28;;;;;;;26.70;3.25;;;;;;;;;;5015153;28;20030;-79
2022/12/29 10:17:57;;;;;;;20.95;3.20;;;;;;;;;;5018358;28;20030;-79
2022/12/29 10:20:29;;;;;;;17.13;3.53;;;;;;;;;;5037020;28;20368;-79
2022/12/29 10:23:02;;;;;;;23.88;3.22;;;;;;;;;;5034986;28;20469;-78
2022/12/29 10:25:30;;;;;;;25.77;3.97;;;;;;;;;;5034041;28;20052;-78
2022/12/29 10:27:58;;;;;;;18.45;3.47;;;;;;;;;;5034750;28;20164;-78
2022/12/29 10:30:24;;;;;;;16.25;3.85;;;;;;;;;;5022376;28;20044;-78
2022/12/29 10:32:58;;;;;;;15.55;2.75;;;;;;;;;;5038140;28;20026;-78
2022/12/29 10:35:25;;;;;;;19.77;3.00;;;;;;;;;;5041261;28;20033;-78
2022/12/29 10:37:59;;;;;;;12.15;2.13;;;;;;;;;;5040677;28;20600;-78
2022/12/29 10:40:28;;;;;;;16.17;2.75;;;;;;;;;;5039688;28;20476;-78
2022/12/29 10:42:56;;;;;;;15.75;2.63;;;;;;;;;;5037200;28;20033;-79
2022/12/29 10:45:23;;;;;;;17.02;3.70;;;;;;;;;;5034957;28;20079;-78
2022/12/29 10:47:54;;;;;;;13.45;2.80;;;;;;;;;;5036699;28;20034;-78
2022/12/29 10:50:24;;;;;;;12.13;2.60;;;;;;;;;;5037032;28;20502;-78
2022/12/29 10:52:50;;;;;;;;;;;;;;;;;;5017400;28;20040;-78
2022/12/29 10:55:19;;;;;;;14.90;1.80;;;;;;;;;;5033110;28;19913;-78
2022/12/29 10:57:46;;;;;;;16.08;2.33;;;;;;;;;;5017201;28;20062;-78
2022/12/29 11:00:20;;;;;;;12.48;2.10;;;;;;;;;;5034109;28;20077;-78
2022/12/29 11:03:06;;;;;;;16.45;2.67;;;;;;;;;;5034483;28;20030;-78
2022/12/29 11:05:41;;;;;;;10.20;1.85;;;;;;;;;;5019626;28;20025;-79
2022/12/29 11:08:17;;;;;;;15.48;2.10;;;;;;;;;;5014374;28;20030;-79
2022/12/29 11:10:46;;;;;;;21.75;4.70;;;;;;;;;;5031813;28;20029;-79
2022/12/29 11:13:15;;;;;;;13.77;2.22;;;;;;;;;;5014834;28;20037;-79
2022/12/29 11:15:46;;;;;;;10.63;1.58;;;;;;;;;;5017623;28;20050;-78
2022/12/29 11:18:22;;;;;;;9.02;1.52;;;;;;;;;;5018636;28;20057;-78
2022/12/29 11:20:48;;;;;;;16.30;2.10;;;;;;;;;;5017411;28;20034;-79
2022/12/29 11:23:44;;;;;;;16.17;2.30;;;;;;;;;;5023225;28;20022;-78
2022/12/29 11:26:10;;;;;;;14.70;2.67;;;;;;;;;;5004461;28;20026;-78
2022/12/29 11:28:47;;;;;;;11.48;1.70;;;;;;;;;;5026564;28;20108;-78
2022/12/29 11:31:18;;;;;;;12.27;2.00;;;;;;;;;;5039647;28;20033;-79
2022/12/29 11:33:44;;;;;;;11.10;1.70;;;;;;;;;;5037255;28;20064;-79
2022/12/29 11:36:18;;;;;;;9.73;1.70;;;;;;;;;;5034259;28;20025;-78
2022/12/29 11:38:52;;;;;;;12.20;1.80;;;;;;;;;;5033785;28;20022;-78
2022/12/29 11:41:25;;;;;;;10.18;1.13;;;;;;;;;;5036138;28;20025;-78
2022/12/29 11:43:53;;;;;;;12.50;1.23;;;;;;;;;;5037849;28;20022;-78
2022/12/29 11:46:21;;;;;;;9.18;1.13;;;;;;;;;;5033929;28;20026;-78
2022/12/29 11:48:48;;;;;;;7.97;1.38;;;;;;;;;;5034257;28;20116;-78
2022/12/29 11:51:21;;;;;;;10.63;1.30;;;;;;;;;;5034079;28;20486;-78
2022/12/29 11:53:50;;;;;;;7.90;2.08;;;;;;;;;;5034288;28;20514;-78
2022/12/29 11:56:18;;;;;;;6.68;1.20;;;;;;;;;;5034127;28;20107;-78
2022/12/29 11:58:44;;;;;;;11.43;1.60;;;;;;;;;;5012418;28;20058;-78
2022/12/29 12:01:23;;;;;;;9.82;1.15;;;;;;;;;;5014717;28;20049;-78
2022/12/29 12:04:02;;;;;;;8.63;1.35;;;;;;;;;;5014873;28;20115;-78
2022/12/29 12:06:29;;;;;;;6.88;1.70;;;;;;;;;;5014333;28;20037;-78
2022/12/29 12:08:57;;;;;;;11.02;1.77;;;;;;;;;;5014393;28;20026;-78
2022/12/29 12:11:28;;;;;;;9.80;2.00;;;;;;;;;;5014173;28;20022;-78
2022/12/29 12:14:02;;;;;;;9.80;1.40;;;;;;;;;;5014299;28;20101;-78
2022/12/29 12:16:37;;;;;;;9.73;1.63;;;;;;;;;;5014201;28;20084;-78
2022/12/29 12:19:09;;;;;;;8.65;1.63;;;;;;;;;;5014570;28;20044;-78
2022/12/29 12:21:40;;;;;;;10.60;2.03;;;;;;;;;;5014584;28;20054;-78
2022/12/29 12:24:06;;;;;;;6.35;1.58;;;;;;;;;;5021646;28;20038;-78
2022/12/29 12:26:38;;;;;;;10.60;1.80;;;;;;;;;;5019411;28;20030;-78
2022/12/29 12:29:09;;;;;;;11.77;1.63;;;;;;;;;;5005809;28;20034;-78
2022/12/29 12:31:54;;;;;;;6.05;1.42;;;;;;;;;;5003857;28;20076;-78
2022/12/29 12:34:27;;;;;;;10.65;1.60;;;;;;;;;;5004017;28;20026;-78
2022/12/29 12:36:56;;;;;;;9.80;1.60;;;;;;;;;;5021354;28;20030;-78
2022/12/29 12:39:22;;;;;;;11.55;1.92;;;;;;;;;;5023994;28;20025;-78
2022/12/29 12:41:53;;;;;;;9.68;1.92;;;;;;;;;;5022290;28;20028;-78
2022/12/29 12:44:34;;;;;;;9.60;1.85;;;;;;;;;;5022996;28;20041;-78
2022/12/29 12:47:29;;;;;;;6.97;1.42;;;;;;;;;;5020638;28;20052;-78
2022/12/29 12:50:14;;;;;;;11.52;1.70;;;;;;;;;;5007289;28;20492;-78
2022/12/29 12:52:43;;;;;;;14.07;3.08;;;;;;;;;;5019447;28;20445;-78
2022/12/29 12:55:12;;;;;;;8.45;2.38;;;;;;;;;;5021403;28;20065;-78
2022/12/29 12:57:49;;;;;;;10.85;3.08;;;;;;;;;;5017248;28;20026;-78
2022/12/29 13:00:22;;;;;;;10.05;1.95;;;;;;;;;;5033268;28;20350;-78
2022/12/29 13:02:51;;;;;;;10.05;3.70;;;;;;;;;;5038026;28;20026;-78
2022/12/29 13:05:30;;;;;;;9.00;2.70;;;;;;;;;;5038717;28;20365;-78
2022/12/29 13:08:14;;;;;;;8.35;2.33;;;;;;;;;;5037027;28;20530;-78
2022/12/29 13:10:40;;;;;;;10.00;2.30;;;;;;;;;;5041291;28;20056;-78
2022/12/29 13:13:21;;;;;;;9.05;1.63;;;;;;;;;;5041948;28;20369;-78
2022/12/29 13:16:00;;;;;;;12.02;2.53;;;;;;;;;;5036964;28;20033;-78
2022/12/29 13:18:45;;;;;;;8.07;2.15;;;;;;;;;;5022523;28;20091;-78
2022/12/29 13:21:16;;;;;;;8.25;1.35;;;;;;;;;;5037252;28;20033;-78
2022/12/29 13:24:05;;;;;;;9.45;1.90;;;;;;;;;;5037937;28;20018;-78
2022/12/29 13:26:31;;;;;;;14.32;2.30;;;;;;;;;;5042955;28;20025;-78
2022/12/29 13:29:05;;;;;;;9.00;1.33;;;;;;;;;;5041577;28;20075;-78
2022/12/29 13:31:31;;;;;;;10.60;1.73;;;;;;;;;;5038113;28;20427;-78
2022/12/29 13:34:03;;;;;;;6.38;1.92;;;;;;;;;;5039904;28;20052;-78
2022/12/29 13:36:29;;;;;;;10.77;1.55;;;;;;;;;;5036997;28;20104;-78
2022/12/29 13:39:13;;;;;;;9.77;2.17;;;;;;;;;;5036383;28;20487;-78
2022/12/29 13:41:59;;;;;;;10.02;2.22;;;;;;;;;;5036899;28;20369;-78
2022/12/29 13:44:30;;;;;;;7.60;1.60;;;;;;;;;;5036491;28;20120;-78
2022/12/29 13:46:59;;;;;;;8.02;1.30;;;;;;;;;;5018670;28;20025;-78
2022/12/29 13:49:27;;;;;;;10.93;1.60;;;;;;;;;;5036287;28;20109;-78
2022/12/29 13:51:57;;;;;;;7.32;1.15;;;;;;;;;;5038354;28;20097;-78
2022/12/29 13:54:43;;;;;;;11.00;1.75;;;;;;;;;;5036182;28;20080;-78
2022/12/29 13:57:32;;;;;;;15.10;3.70;;;;;;;;;;5008987;28;20029;-77
2022/12/29 14:00:02;;;;;;;12.57;2.28;;;;;;;;;;5032500;28;20055;-78
2022/12/29 14:02:47;;;;;;;11.00;1.83;;;;;;;;;;5027559;28;20446;-78
2022/12/29 14:05:19;;;;;;;12.15;1.50;;;;;;;;;;5030831;28;20029;-78
2022/12/29 14:07:45;;;;;;;9.90;1.63;;;;;;;;;;5027797;28;20029;-78
2022/12/29 14:10:28;;;;;;;12.75;2.42;;;;;;;;;;5028118;28;20021;-78
2022/12/29 14:13:02;;;;;;;7.38;1.38;;;;;;;;;;5030665;28;20029;-78
2022/12/29 14:15:28;;;;;;;7.80;1.75;;;;;;;;;;5027389;28;20021;-78
2022/12/29 14:18:14;;;;;;;10.02;2.05;;;;;;;;;;5024919;28;20380;-78
2022/12/29 14:20:50;;;;;;;9.18;1.15;;;;;;;;;;5016467;28;20038;-78
2022/12/29 14:23:37;;;;;;;10.20;1.42;;;;;;;;;;5027718;28;20041;-78
2022/12/29 14:26:06;;;;;;;9.48;1.80;;;;;;;;;;5008224;28;20033;-78
2022/12/29 14:28:36;;;;;;;8.25;1.38;;;;;;;;;;5037206;28;20029;-77
2022/12/29 14:31:17;;;;;;;12.05;2.22;;;;;;;;;;5027316;28;20032;-77
2022/12/29 14:34:01;;;;;;;12.52;1.95;;;;;;;;;;5034835;28;20029;-77
2022/12/29 14:36:34;;;;;;;10.18;1.42;;;;;;;;;;5028869;28;20029;-77
2022/12/29 14:39:01;;;;;;;8.60;1.48;;;;;;;;;;5030119;28;20026;-77
2022/12/29 14:41:38;;;;;;;7.18;1.50;;;;;;;;;;5034478;28;20033;-77
2022/12/29 14:44:07;;;;;;;9.93;1.65;;;;;;;;;;5029879;28;20021;-77
2022/12/29 14:46:43;;;;;;;13.50;2.63;;;;;;;;;;5034066;28;20033;-77
2022/12/29 14:49:13;;;;;;;11.35;1.60;;;;;;;;;;5034035;28;20034;-77
2022/12/29 14:51:39;;;;;;;8.95;1.45;;;;;;;;;;5025667;28;20084;-78
2022/12/29 14:54:23;;;;;;;8.13;1.50;;;;;;;;;;5026794;28;20049;-78
2022/12/29 14:56:49;;;;;;;13.48;1.80;;;;;;;;;;5009323;28;20451;-78
2022/12/29 14:59:16;;;;;;;9.45;2.40;;;;;;;;;;5022293;28;20493;-78
2022/12/29 15:02:00;;;;;;;10.38;2.08;;;;;;;;;;5031819;28;20068;-78
2022/12/29 15:04:32;;;;;;;10.05;1.75;;;;;;;;;;5020651;28;20052;-78
2022/12/29 15:06:59;;;;;;;12.25;2.45;;;;;;;;;;5026906;28;20030;-78
2022/12/29 15:09:33;;;;;;;11.13;1.98;;;;;;;;;;5025842;28;20056;-78
2022/12/29 15:12:06;;;;;;;8.52;1.83;;;;;;;;;;5025201;28;20072;-78
2022/12/29 15:14:37;;;;;;;8.32;2.20;;;;;;;;;;5024893;28;20479;-77
2022/12/29 15:17:10;;;;;;;9.77;2.22;;;;;;;;;;5024263;28;20029;-77
2022/12/29 15:19:36;;;;;;;17.90;2.47;;;;;;;;;;5018919;28;20026;-77
2022/12/29 15:22:03;;;;;;;9.77;1.58;;;;;;;;;;5031441;28;20036;-77
2022/12/29 15:24:29;;;;;;;10.00;1.90;;;;;;;;;;5034819;28;20088;-77
2022/12/29 15:26:55;;;;;;;14.65;1.83;;;;;;;;;;5022485;28;20026;-78
2022/12/29 15:29:38;;;;;;;8.68;0.98;;;;;;;;;;5027363;28;20037;-78
2022/12/29 15:32:16;;;;;;;9.50;1.20;;;;;;;;;;5015374;28;20106;-78
2022/12/29 15:34:46;;;;;;;6.40;1.05;;;;;;;;;;5015568;28;20030;-78
2022/12/29 15:37:20;;;;;;;6.75;1.20;;;;;;;;;;5014855;28;20037;-78
2022/12/29 15:39:46;;;;;;;3.90;0.80;;;;;;;;;;5014615;28;20030;-78
2022/12/29 15:42:22;;;;;;;4.57;0.70;;;;;;;;;;5014291;28;20030;-77